Terminal Aerodrome Forecast
Issued by NWS

Home | Current Version | Previous Version | Text Only | Print | Product List | Glossary On
Versions: 1 2 3 4 5 6 7 8 9 10 11 12 13 14 15 16 17 18 19 20 21 22 23 24 25 26
000
FTAK31 PAFC 190541
TAFATK
TAF
PATK 190541Z 1906/2006 18005KT P6SM SCT040 OVC080
      TEMPO 1909/1912 5SM -SN BR BKN030
     FM191200 20005KT 3SM -SN BKN020 OVC035
     FM192200 19008KT 6SM -SN SCT015 BKN030=

USA.gov is the U.S. government's official web portal to all federal, state and local government web resources and services.